createdAt,value
2023-03-06T00:01:20.982Z,28.45
2023-03-06T00:03:49.282Z,29.52
2023-03-06T00:06:20.082Z,28.55
2023-03-06T00:08:47.845Z,27.73
2023-03-06T00:11:16.121Z,28.90
2023-03-06T00:13:44.093Z,28.33
2023-03-06T00:16:12.382Z,28.23
2023-03-06T00:18:41.030Z,26.67
2023-03-06T00:21:12.867Z,25.65
2023-03-06T00:23:41.496Z,27.13
2023-03-06T00:26:10.429Z,28.35
2023-03-06T00:28:41.401Z,26.60
2023-03-06T00:31:10.661Z,26.35
2023-03-06T00:33:38.718Z,27.52
2023-03-06T00:36:07.467Z,28.33
2023-03-06T00:38:37.350Z,29.00
2023-03-06T00:41:14.996Z,29.58
2023-03-06T00:43:43.335Z,26.65
2023-03-06T00:46:11.425Z,28.20
2023-03-06T00:48:41.095Z,27.73
2023-03-06T00:51:14.031Z,25.75
2023-03-06T00:53:42.605Z,25.75
2023-03-06T00:56:11.272Z,25.27
2023-03-06T00:58:39.828Z,27.38
2023-03-06T01:01:08.195Z,28.10
2023-03-06T01:03:36.442Z,27.83
2023-03-06T01:06:04.522Z,27.25
2023-03-06T01:08:35.774Z,26.90
2023-03-06T01:11:03.939Z,27.02
2023-03-06T01:13:31.923Z,28.45
2023-03-06T01:16:08.355Z,29.73
2023-03-06T01:18:36.568Z,27.77
2023-03-06T01:21:06.347Z,28.27
2023-03-06T01:23:37.292Z,27.73
2023-03-06T01:26:05.783Z,29.55
2023-03-06T01:28:37.624Z,29.38
2023-03-06T01:31:07.630Z,28.75
2023-03-06T01:33:36.553Z,28.75
2023-03-06T01:36:11.251Z,28.85
2023-03-06T01:38:39.467Z,28.63
2023-03-06T01:41:08.054Z,29.27
2023-03-06T01:43:37.999Z,29.00
2023-03-06T01:46:26.450Z,29.80
2023-03-06T01:48:59.614Z,27.35
2023-03-06T01:51:35.592Z,27.35
2023-03-06T01:54:21.882Z,26.95
2023-03-06T01:56:53.964Z,26.73
2023-03-06T01:59:23.128Z,26.65
2023-03-06T02:01:51.968Z,25.73
2023-03-06T02:04:26.946Z,26.17
2023-03-06T02:06:57.575Z,26.58
2023-03-06T02:09:29.931Z,25.40
2023-03-06T02:12:00.281Z,26.08
2023-03-06T02:14:32.583Z,27.10
2023-03-06T02:17:01.465Z,27.10
2023-03-06T02:19:52.113Z,25.50
2023-03-06T02:22:28.099Z,26.02
2023-03-06T02:25:01.814Z,25.40
2023-03-06T02:27:30.423Z,25.85
2023-03-06T02:29:58.559Z,25.75
2023-03-06T02:32:26.509Z,26.55
2023-03-06T02:34:57.323Z,25.05
2023-03-06T02:37:28.615Z,25.17
2023-03-06T02:40:08.584Z,23.85
2023-03-06T02:42:36.601Z,23.40
2023-03-06T02:45:08.199Z,26.27
2023-03-06T02:47:36.074Z,25.05
2023-03-06T02:50:04.449Z,24.67
2023-03-06T02:52:32.622Z,23.63
2023-03-06T02:55:00.792Z,23.55
2023-03-06T02:57:28.896Z,23.60
2023-03-06T03:00:10.045Z,25.80
2023-03-06T03:02:38.848Z,24.60
2023-03-06T03:05:07.937Z,24.08
2023-03-06T03:07:37.413Z,26.63
2023-03-06T03:10:12.571Z,25.88
2023-03-06T03:12:40.888Z,24.38
2023-03-06T03:15:10.239Z,24.02
2023-03-06T03:17:43.602Z,23.55
2023-03-06T03:20:16.879Z,22.67
2023-03-06T03:22:56.295Z,23.92
2023-03-06T03:25:27.572Z,24.35
2023-03-06T03:27:58.411Z,24.10
2023-03-06T03:30:30.568Z,23.77
2023-03-06T03:32:58.445Z,23.67
2023-03-06T03:35:27.353Z,23.15
2023-03-06T03:37:56.966Z,23.48
2023-03-06T03:40:27.120Z,24.05
2023-03-06T03:42:55.630Z,23.15
2023-03-06T03:45:24.832Z,23.38
2023-03-06T03:47:53.111Z,23.20
2023-03-06T03:50:23.398Z,23.95
2023-03-06T03:52:51.844Z,24.27
2023-03-06T03:55:20.172Z,23.00
2023-03-06T03:57:48.124Z,24.02
2023-03-06T04:00:17.130Z,23.88
2023-03-06T04:02:55.860Z,24.55
2023-03-06T04:05:34.077Z,24.05
2023-03-06T04:08:05.811Z,25.17
2023-03-06T04:10:36.733Z,24.40
2023-03-06T04:13:05.065Z,23.88
2023-03-06T04:15:33.597Z,23.80
2023-03-06T04:18:02.865Z,24.63
2023-03-06T04:20:31.841Z,23.33
2023-03-06T04:23:01.712Z,23.55
2023-03-06T04:25:30.495Z,22.88
2023-03-06T04:28:00.922Z,23.55
2023-03-06T04:30:30.161Z,23.42
2023-03-06T04:32:59.112Z,23.42
2023-03-06T04:35:28.000Z,22.63
2023-03-06T04:40:33.926Z,22.80
2023-03-06T04:43:03.260Z,24.73
2023-03-06T04:45:33.181Z,25.33
2023-03-06T04:48:01.875Z,23.60
2023-03-06T04:50:32.752Z,23.10
2023-03-06T04:53:03.695Z,23.85
2023-03-06T04:55:32.749Z,24.83
2023-03-06T04:58:00.893Z,23.95
2023-03-06T05:00:31.949Z,25.08
2023-03-06T05:03:01.914Z,23.67
2023-03-06T05:05:30.319Z,23.98
2023-03-06T05:07:58.590Z,23.83
2023-03-06T05:10:27.137Z,23.90
2023-03-06T05:12:55.761Z,24.48
2023-03-06T05:15:26.829Z,27.20
2023-03-06T05:17:58.081Z,28.05
2023-03-06T05:20:26.472Z,28.38
2023-03-06T05:22:54.965Z,28.80
2023-03-06T05:25:23.631Z,30.27
2023-03-06T05:27:51.681Z,30.92
2023-03-06T05:30:21.421Z,35.28
2023-03-06T05:32:50.070Z,32.83
2023-03-06T05:35:20.873Z,32.80
2023-03-06T05:37:49.764Z,32.45
2023-03-06T05:40:18.707Z,34.38
2023-03-06T05:42:46.693Z,35.35
2023-03-06T05:45:14.437Z,35.17
2023-03-06T05:47:42.353Z,35.33
2023-03-06T05:50:12.504Z,37.88
2023-03-06T05:52:41.179Z,36.90
2023-03-06T05:55:13.326Z,33.95
2023-03-06T05:57:41.204Z,35.58
2023-03-06T06:00:10.719Z,37.53
2023-03-06T06:02:41.873Z,35.47
2023-03-06T06:05:12.851Z,35.72
2023-03-06T06:07:41.759Z,34.50
2023-03-06T06:10:11.507Z,34.10
2023-03-06T06:12:39.427Z,36.58
2023-03-06T06:15:08.005Z,34.83
2023-03-06T06:17:35.918Z,36.30
2023-03-06T06:20:04.196Z,38.25
2023-03-06T06:22:36.280Z,36.58
2023-03-06T06:25:05.416Z,36.45
2023-03-06T06:27:33.276Z,37.28
2023-03-06T06:30:01.056Z,35.33
2023-03-06T06:32:29.148Z,35.03
2023-03-06T06:34:57.526Z,34.13
2023-03-06T06:37:26.174Z,33.88
2023-03-06T06:39:53.813Z,35.38
2023-03-06T06:42:31.460Z,35.20
2023-03-06T06:45:02.831Z,36.83
2023-03-06T06:47:31.991Z,35.83
2023-03-06T06:50:00.003Z,35.67
2023-03-06T06:52:28.049Z,33.83
2023-03-06T06:54:56.088Z,32.80
2023-03-06T06:57:24.187Z,36.67
2023-03-06T06:59:54.179Z,32.85
2023-03-06T07:02:22.703Z,32.08
2023-03-06T07:05:03.212Z,33.80
2023-03-06T07:07:34.605Z,33.35
2023-03-06T07:10:07.417Z,28.33
2023-03-06T07:12:35.448Z,28.85
2023-03-06T07:15:05.291Z,32.47
2023-03-06T07:17:33.661Z,35.53
2023-03-06T07:20:01.406Z,31.77
2023-03-06T07:22:31.954Z,35.83
2023-03-06T07:25:06.482Z,35.15
2023-03-06T07:27:34.209Z,35.38
2023-03-06T07:30:02.405Z,33.45
2023-03-06T07:32:30.540Z,33.42
2023-03-06T07:35:18.747Z,31.50
2023-03-06T07:37:47.616Z,33.95
2023-03-06T07:40:15.576Z,34.10
2023-03-06T07:42:43.626Z,34.22
2023-03-06T07:45:14.227Z,33.20
2023-03-06T07:47:42.272Z,33.25
2023-03-06T07:50:10.944Z,36.42
2023-03-06T07:52:38.993Z,36.67
2023-03-06T07:55:07.816Z,36.58
2023-03-06T07:57:37.055Z,35.88
2023-03-06T08:00:07.384Z,34.38
2023-03-06T08:02:49.191Z,36.65
2023-03-06T08:05:17.781Z,34.83
2023-03-06T08:07:48.681Z,34.88
2023-03-06T08:10:17.394Z,35.80
2023-03-06T08:12:45.266Z,35.08
2023-03-06T08:15:20.258Z,38.90
2023-03-06T08:17:48.272Z,37.40
2023-03-06T08:20:18.735Z,37.35
2023-03-06T08:22:46.459Z,34.78
2023-03-06T08:25:14.594Z,34.97
2023-03-06T08:27:43.516Z,34.83
2023-03-06T08:30:12.709Z,37.03
2023-03-06T08:32:40.861Z,35.70
2023-03-06T08:35:09.566Z,37.60
2023-03-06T08:37:39.505Z,37.47
2023-03-06T08:40:08.822Z,35.25
2023-03-06T08:42:36.874Z,35.40
2023-03-06T08:45:08.780Z,35.88
2023-03-06T08:47:36.702Z,37.33
2023-03-06T08:50:05.004Z,37.42
2023-03-06T08:52:33.459Z,38.58
2023-03-06T08:55:03.763Z,37.38
2023-03-06T08:57:31.822Z,38.80
2023-03-06T09:00:00.424Z,35.83
2023-03-06T09:02:30.199Z,36.80
2023-03-06T09:04:59.736Z,36.40
2023-03-06T09:07:27.925Z,37.95
2023-03-06T09:09:57.884Z,38.15
2023-03-06T09:12:27.234Z,38.83
2023-03-06T09:14:56.173Z,37.47
2023-03-06T09:17:24.082Z,40.28
2023-03-06T09:19:52.584Z,36.35
2023-03-06T09:22:20.532Z,38.45
2023-03-06T09:24:48.362Z,36.65
2023-03-06T09:27:16.513Z,35.42
2023-03-06T09:29:44.400Z,35.72
2023-03-06T09:32:12.424Z,34.58
2023-03-06T09:34:40.455Z,37.28
2023-03-06T09:37:08.631Z,33.47
2023-03-06T09:39:36.763Z,38.67
2023-03-06T09:42:08.736Z,35.50
2023-03-06T09:44:41.397Z,32.55
2023-03-06T09:47:36.977Z,34.15
2023-03-06T09:50:28.744Z,35.13
2023-03-06T09:53:03.041Z,31.15
2023-03-06T09:55:38.379Z,34.05
2023-03-06T09:58:23.036Z,31.83
2023-03-06T10:01:12.487Z,30.27
2023-03-06T10:03:53.480Z,29.58
2023-03-06T10:06:28.604Z,31.65
2023-03-06T10:08:56.427Z,29.90
2023-03-06T10:11:42.574Z,31.33
2023-03-06T10:14:49.034Z,29.27
2023-03-06T10:17:21.342Z,29.40
2023-03-06T10:19:50.133Z,29.02
2023-03-06T10:22:43.746Z,29.92
2023-03-06T10:25:28.409Z,30.05
2023-03-06T10:28:11.737Z,28.83
2023-03-06T10:30:58.252Z,33.70
2023-03-06T10:33:50.231Z,29.52
2023-03-06T10:36:19.900Z,27.98
2023-03-06T10:38:48.996Z,28.05
2023-03-06T10:41:36.664Z,28.63
2023-03-06T10:44:08.216Z,31.02
2023-03-06T10:46:39.812Z,28.45
2023-03-06T10:49:40.367Z,29.67
2023-03-06T10:52:14.145Z,28.45
2023-03-06T10:54:44.751Z,27.83
2023-03-06T10:57:26.681Z,27.98
2023-03-06T11:00:02.793Z,26.80
2023-03-06T11:02:44.392Z,27.20
2023-03-06T11:05:22.770Z,25.20
2023-03-06T11:08:00.442Z,26.52
2023-03-06T11:10:31.365Z,27.48
2023-03-06T11:13:00.760Z,25.85
2023-03-06T11:15:29.876Z,24.80
2023-03-06T11:18:10.402Z,23.80
2023-03-06T11:20:52.872Z,25.05
2023-03-06T11:23:39.887Z,26.00
2023-03-06T11:26:20.069Z,23.98
2023-03-06T11:29:03.704Z,25.73
2023-03-06T11:31:45.243Z,24.45
2023-03-06T11:34:30.660Z,26.27
2023-03-06T11:37:25.805Z,25.38
2023-03-06T11:40:12.281Z,24.63
2023-03-06T11:42:53.430Z,24.38
2023-03-06T11:45:45.257Z,23.92
2023-03-06T11:48:19.778Z,25.58
2023-03-06T11:51:03.860Z,24.10
2023-03-06T11:53:39.011Z,24.55
2023-03-06T11:56:25.267Z,23.63
2023-03-06T11:59:02.022Z,24.52
2023-03-06T12:01:48.567Z,23.90
2023-03-06T12:04:55.049Z,24.85
2023-03-06T12:07:35.001Z,23.83
2023-03-06T12:10:40.201Z,22.23
2023-03-06T12:13:21.698Z,24.40
2023-03-06T12:16:25.339Z,24.95
2023-03-06T12:19:28.492Z,22.83
2023-03-06T12:22:09.815Z,21.30
2023-03-06T12:25:31.145Z,21.02
2023-03-06T12:28:39.965Z,22.60
2023-03-06T12:31:29.012Z,23.63
2023-03-06T12:34:13.056Z,20.65
2023-03-06T12:39:30.121Z,21.25
2023-03-06T12:42:17.887Z,19.63
2023-03-06T12:45:30.873Z,21.48
2023-03-06T12:48:03.298Z,20.40
2023-03-06T12:50:36.141Z,20.10
2023-03-06T12:53:16.939Z,20.98
2023-03-06T12:55:51.232Z,18.98
2023-03-06T12:58:31.723Z,20.48
2023-03-06T13:01:12.488Z,21.15
2023-03-06T13:03:59.420Z,19.98
2023-03-06T13:11:16.422Z,19.83
2023-03-06T13:13:48.174Z,19.52
2023-03-06T13:16:42.586Z,20.63
2023-03-06T13:24:06.883Z,18.80
2023-03-06T13:26:36.378Z,18.20
2023-03-06T13:47:32.343Z,17.77
2023-03-06T14:07:43.499Z,18.70
2023-03-06T14:16:00.584Z,19.23
2023-03-06T14:29:13.256Z,20.85
2023-03-06T14:32:58.284Z,21.67
2023-03-06T14:35:32.703Z,18.75
2023-03-06T14:43:27.750Z,20.55
2023-03-06T14:46:22.142Z,19.83
2023-03-06T14:48:50.150Z,19.30
2023-03-06T14:51:21.912Z,19.17
2023-03-06T14:54:04.016Z,18.20
2023-03-06T14:56:37.444Z,17.90
2023-03-06T15:04:00.403Z,19.02
2023-03-06T15:25:45.657Z,14.98
2023-03-06T15:29:14.443Z,16.85
2023-03-06T15:31:45.521Z,15.15
2023-03-06T15:35:06.877Z,16.83
2023-03-06T15:37:36.075Z,14.27
2023-03-06T15:40:12.277Z,13.38
2023-03-06T15:42:52.220Z,12.30
2023-03-06T15:45:31.369Z,13.40
2023-03-06T15:53:40.090Z,13.73
2023-03-06T15:56:10.638Z,13.43
2023-03-06T15:58:40.734Z,13.88
2023-03-06T16:01:16.878Z,15.38
2023-03-06T16:03:46.304Z,13.90
2023-03-06T16:06:19.684Z,14.50
2023-03-06T16:08:47.809Z,12.32
2023-03-06T16:11:26.016Z,13.52
2023-03-06T16:13:59.305Z,12.98
2023-03-06T16:16:39.704Z,13.23
2023-03-06T16:19:25.402Z,13.43
2023-03-06T16:21:55.895Z,12.95
2023-03-06T16:24:26.953Z,12.88
2023-03-06T16:26:57.601Z,12.25
2023-03-06T16:29:27.876Z,12.45
2023-03-06T16:36:23.769Z,13.63
2023-03-06T16:39:04.652Z,15.30
2023-03-06T16:41:51.938Z,13.75
2023-03-06T16:44:20.972Z,14.18
2023-03-06T16:46:50.579Z,14.93
2023-03-06T16:49:23.511Z,15.18
2023-03-06T16:52:07.007Z,14.77
2023-03-06T16:54:45.123Z,14.63
2023-03-06T16:57:18.993Z,13.10
2023-03-06T16:59:48.713Z,15.70
2023-03-06T17:02:28.800Z,14.73
2023-03-06T17:04:56.961Z,14.48
2023-03-06T17:07:30.923Z,15.97
2023-03-06T17:10:02.493Z,16.50
2023-03-06T17:12:38.056Z,16.52
2023-03-06T17:15:08.084Z,16.08
2023-03-06T17:17:43.172Z,16.77
2023-03-06T17:20:25.608Z,18.23
2023-03-06T17:22:54.205Z,17.52
2023-03-06T17:25:23.693Z,16.20
2023-03-06T17:30:59.993Z,15.63
2023-03-06T17:33:28.379Z,16.08
2023-03-06T17:40:51.355Z,14.63
2023-03-06T17:43:24.881Z,14.30
2023-03-06T17:45:52.510Z,15.80
2023-03-06T17:48:21.617Z,16.33
2023-03-06T17:50:56.982Z,16.52
2023-03-06T17:53:25.849Z,17.90
2023-03-06T17:55:54.531Z,18.70
2023-03-06T17:58:25.459Z,17.10
2023-03-06T18:01:00.209Z,28.70
2023-03-06T18:03:36.817Z,30.95
2023-03-06T18:06:09.718Z,18.05
2023-03-06T23:03:53.945Z,22.08
2023-03-06T23:06:31.073Z,21.98
2023-03-06T23:09:08.583Z,21.50
2023-03-06T23:11:55.136Z,22.25
2023-03-06T23:14:41.848Z,22.20
2023-03-06T23:17:28.531Z,23.05
2023-03-06T23:20:15.315Z,25.40
2023-03-06T23:23:04.860Z,24.55
2023-03-06T23:25:42.897Z,24.35
2023-03-06T23:28:12.038Z,24.13
2023-03-06T23:30:41.326Z,24.98
2023-03-06T23:33:09.945Z,24.42
2023-03-06T23:35:39.177Z,25.98
2023-03-06T23:38:08.501Z,25.30
2023-03-06T23:40:38.802Z,24.55
2023-03-06T23:43:07.146Z,24.00
2023-03-06T23:45:35.291Z,24.73
2023-03-06T23:48:05.923Z,24.52
2023-03-06T23:50:33.794Z,24.25
2023-03-06T23:53:01.775Z,31.15
2023-03-06T23:55:29.569Z,26.45
2023-03-06T23:57:59.335Z,32.45
